sensor_id;sensor_type;location;lat;lon;timestamp;P1;durP1;ratioP1;P2;durP2;ratioP2
19623;SDS011;9959;49.798;9.928;2022-12-20T00:00:25;105.20;;;35.77;;
19623;SDS011;9959;49.798;9.928;2022-12-20T00:03:29;101.27;;;34.37;;
19623;SDS011;9959;49.798;9.928;2022-12-20T00:06:35;98.00;;;34.37;;
19623;SDS011;9959;49.798;9.928;2022-12-20T00:09:40;102.47;;;35.47;;
19623;SDS011;9959;49.798;9.928;2022-12-20T00:12:45;101.93;;;35.07;;
19623;SDS011;9959;49.798;9.928;2022-12-20T00:15:52;91.03;;;33.07;;
19623;SDS011;9959;49.798;9.928;2022-12-20T00:19:09;98.40;;;34.27;;
19623;SDS011;9959;49.798;9.928;2022-12-20T00:22:14;99.57;;;33.73;;
19623;SDS011;9959;49.798;9.928;2022-12-20T00:25:19;89.73;;;32.50;;
19623;SDS011;9959;49.798;9.928;2022-12-20T00:28:24;94.80;;;32.57;;
19623;SDS011;9959;49.798;9.928;2022-12-20T00:31:32;95.10;;;31.93;;
19623;SDS011;9959;49.798;9.928;2022-12-20T00:34:37;87.63;;;30.87;;
19623;SDS011;9959;49.798;9.928;2022-12-20T00:37:42;98.23;;;32.77;;
19623;SDS011;9959;49.798;9.928;2022-12-20T00:40:47;95.37;;;31.20;;
19623;SDS011;9959;49.798;9.928;2022-12-20T00:44:02;97.70;;;31.97;;
19623;SDS011;9959;49.798;9.928;2022-12-20T00:47:10;88.30;;;31.17;;
19623;SDS011;9959;49.798;9.928;2022-12-20T00:50:15;94.43;;;31.73;;
19623;SDS011;9959;49.798;9.928;2022-12-20T00:53:20;97.23;;;33.07;;
19623;SDS011;9959;49.798;9.928;2022-12-20T00:56:28;84.57;;;30.43;;
19623;SDS011;9959;49.798;9.928;2022-12-20T00:59:33;96.20;;;31.63;;
19623;SDS011;9959;49.798;9.928;2022-12-20T01:02:41;91.87;;;31.27;;
19623;SDS011;9959;49.798;9.928;2022-12-20T01:05:49;93.50;;;31.57;;
19623;SDS011;9959;49.798;9.928;2022-12-20T01:08:56;91.23;;;33.20;;
19623;SDS011;9959;49.798;9.928;2022-12-20T01:12:01;81.93;;;31.07;;
19623;SDS011;9959;49.798;9.928;2022-12-20T01:15:06;90.17;;;31.43;;
19623;SDS011;9959;49.798;9.928;2022-12-20T01:18:15;93.13;;;31.33;;
19623;SDS011;9959;49.798;9.928;2022-12-20T01:21:21;91.40;;;31.20;;
19623;SDS011;9959;49.798;9.928;2022-12-20T01:24:27;92.37;;;32.13;;
19623;SDS011;9959;49.798;9.928;2022-12-20T01:27:32;95.33;;;31.03;;
19623;SDS011;9959;49.798;9.928;2022-12-20T01:30:38;96.05;;;32.22;;
19623;SDS011;9959;49.798;9.928;2022-12-20T01:33:46;91.83;;;31.77;;
19623;SDS011;9959;49.798;9.928;2022-12-20T01:36:53;86.85;;;31.15;;
19623;SDS011;9959;49.798;9.928;2022-12-20T01:39:57;83.93;;;30.50;;
19623;SDS011;9959;49.798;9.928;2022-12-20T01:43:02;88.17;;;29.93;;
19623;SDS011;9959;49.798;9.928;2022-12-20T01:46:07;85.60;;;29.80;;
19623;SDS011;9959;49.798;9.928;2022-12-20T01:49:16;78.15;;;28.58;;
19623;SDS011;9959;49.798;9.928;2022-12-20T01:52:26;87.93;;;30.77;;
19623;SDS011;9959;49.798;9.928;2022-12-20T01:55:35;87.10;;;30.43;;
19623;SDS011;9959;49.798;9.928;2022-12-20T01:58:40;94.50;;;31.17;;
19623;SDS011;9959;49.798;9.928;2022-12-20T02:01:46;99.70;;;31.77;;
19623;SDS011;9959;49.798;9.928;2022-12-20T02:04:54;84.13;;;30.47;;
19623;SDS011;9959;49.798;9.928;2022-12-20T02:07:59;84.40;;;31.17;;
19623;SDS011;9959;49.798;9.928;2022-12-20T02:11:06;85.13;;;29.90;;
19623;SDS011;9959;49.798;9.928;2022-12-20T02:14:24;91.87;;;29.27;;
19623;SDS011;9959;49.798;9.928;2022-12-20T02:17:43;86.97;;;29.73;;
19623;SDS011;9959;49.798;9.928;2022-12-20T02:21:08;94.40;;;30.07;;
19623;SDS011;9959;49.798;9.928;2022-12-20T02:24:26;84.53;;;30.43;;
19623;SDS011;9959;49.798;9.928;2022-12-20T02:27:57;86.97;;;30.90;;
19623;SDS011;9959;49.798;9.928;2022-12-20T02:31:10;87.67;;;30.83;;
19623;SDS011;9959;49.798;9.928;2022-12-20T02:34:19;79.50;;;30.47;;
19623;SDS011;9959;49.798;9.928;2022-12-20T02:37:27;96.85;;;30.25;;
19623;SDS011;9959;49.798;9.928;2022-12-20T02:40:35;85.07;;;30.70;;
19623;SDS011;9959;49.798;9.928;2022-12-20T02:43:45;94.33;;;32.03;;
19623;SDS011;9959;49.798;9.928;2022-12-20T02:47:23;93.07;;;30.50;;
19623;SDS011;9959;49.798;9.928;2022-12-20T02:50:34;94.57;;;32.07;;
19623;SDS011;9959;49.798;9.928;2022-12-20T02:53:41;94.87;;;33.83;;
19623;SDS011;9959;49.798;9.928;2022-12-20T02:56:48;89.73;;;30.33;;
19623;SDS011;9959;49.798;9.928;2022-12-20T02:59:59;93.63;;;30.60;;
19623;SDS011;9959;49.798;9.928;2022-12-20T03:03:11;85.53;;;30.85;;
19623;SDS011;9959;49.798;9.928;2022-12-20T03:06:25;95.90;;;34.03;;
19623;SDS011;9959;49.798;9.928;2022-12-20T03:09:31;94.40;;;34.28;;
19623;SDS011;9959;49.798;9.928;2022-12-20T03:12:38;102.63;;;34.13;;
19623;SDS011;9959;49.798;9.928;2022-12-20T03:15:43;88.63;;;30.07;;
19623;SDS011;9959;49.798;9.928;2022-12-20T03:18:50;88.23;;;31.67;;
19623;SDS011;9959;49.798;9.928;2022-12-20T03:21:55;90.23;;;32.67;;
19623;SDS011;9959;49.798;9.928;2022-12-20T03:25:01;90.35;;;33.15;;
19623;SDS011;9959;49.798;9.928;2022-12-20T03:28:06;88.13;;;32.00;;
19623;SDS011;9959;49.798;9.928;2022-12-20T03:31:11;86.50;;;29.92;;
19623;SDS011;9959;49.798;9.928;2022-12-20T03:34:18;94.13;;;32.35;;
19623;SDS011;9959;49.798;9.928;2022-12-20T03:37:23;93.53;;;32.13;;
19623;SDS011;9959;49.798;9.928;2022-12-20T03:40:28;88.07;;;30.47;;
19623;SDS011;9959;49.798;9.928;2022-12-20T03:43:33;98.82;;;31.23;;
19623;SDS011;9959;49.798;9.928;2022-12-20T03:46:38;96.55;;;31.77;;
19623;SDS011;9959;49.798;9.928;2022-12-20T03:49:45;87.25;;;31.10;;
19623;SDS011;9959;49.798;9.928;2022-12-20T03:52:52;83.15;;;31.33;;
19623;SDS011;9959;49.798;9.928;2022-12-20T03:55:57;83.78;;;30.40;;
19623;SDS011;9959;49.798;9.928;2022-12-20T03:59:02;84.47;;;30.35;;
19623;SDS011;9959;49.798;9.928;2022-12-20T04:02:07;91.18;;;32.40;;
19623;SDS011;9959;49.798;9.928;2022-12-20T04:05:15;93.40;;;32.47;;
19623;SDS011;9959;49.798;9.928;2022-12-20T04:08:20;95.72;;;32.95;;
19623;SDS011;9959;49.798;9.928;2022-12-20T04:11:25;93.80;;;30.40;;
19623;SDS011;9959;49.798;9.928;2022-12-20T04:14:30;96.83;;;33.50;;
19623;SDS011;9959;49.798;9.928;2022-12-20T04:17:36;97.23;;;32.93;;
19623;SDS011;9959;49.798;9.928;2022-12-20T04:20:44;93.27;;;31.43;;
19623;SDS011;9959;49.798;9.928;2022-12-20T04:23:51;95.47;;;33.80;;
19623;SDS011;9959;49.798;9.928;2022-12-20T04:26:56;95.00;;;32.93;;
19623;SDS011;9959;49.798;9.928;2022-12-20T04:30:01;104.78;;;32.60;;
19623;SDS011;9959;49.798;9.928;2022-12-20T04:33:06;95.97;;;33.33;;
19623;SDS011;9959;49.798;9.928;2022-12-20T04:36:13;89.63;;;30.23;;
19623;SDS011;9959;49.798;9.928;2022-12-20T04:39:19;88.20;;;31.75;;
19623;SDS011;9959;49.798;9.928;2022-12-20T04:42:24;90.38;;;31.58;;
19623;SDS011;9959;49.798;9.928;2022-12-20T04:45:29;79.97;;;29.83;;
19623;SDS011;9959;49.798;9.928;2022-12-20T04:48:34;96.57;;;31.90;;
19623;SDS011;9959;49.798;9.928;2022-12-20T04:52:02;90.43;;;31.88;;
19623;SDS011;9959;49.798;9.928;2022-12-20T04:55:19;84.60;;;31.27;;
19623;SDS011;9959;49.798;9.928;2022-12-20T04:58:24;90.37;;;31.20;;
19623;SDS011;9959;49.798;9.928;2022-12-20T05:01:29;91.93;;;31.40;;
19623;SDS011;9959;49.798;9.928;2022-12-20T05:04:35;86.47;;;29.63;;
19623;SDS011;9959;49.798;9.928;2022-12-20T05:07:43;98.00;;;32.90;;
19623;SDS011;9959;49.798;9.928;2022-12-20T05:10:48;78.93;;;30.73;;
19623;SDS011;9959;49.798;9.928;2022-12-20T05:13:53;90.03;;;30.77;;
19623;SDS011;9959;49.798;9.928;2022-12-20T05:16:58;82.97;;;30.23;;
19623;SDS011;9959;49.798;9.928;2022-12-20T05:20:03;90.95;;;31.38;;
19623;SDS011;9959;49.798;9.928;2022-12-20T05:23:13;99.47;;;32.63;;
19623;SDS011;9959;49.798;9.928;2022-12-20T05:26:31;87.83;;;31.70;;
19623;SDS011;9959;49.798;9.928;2022-12-20T05:29:37;87.27;;;30.83;;
19623;SDS011;9959;49.798;9.928;2022-12-20T05:32:43;89.30;;;29.70;;
19623;SDS011;9959;49.798;9.928;2022-12-20T05:35:48;97.43;;;32.65;;
19623;SDS011;9959;49.798;9.928;2022-12-20T05:38:55;95.00;;;33.07;;
19623;SDS011;9959;49.798;9.928;2022-12-20T05:42:05;98.00;;;32.10;;
19623;SDS011;9959;49.798;9.928;2022-12-20T05:45:10;91.13;;;31.10;;
19623;SDS011;9959;49.798;9.928;2022-12-20T05:48:15;92.30;;;33.20;;
19623;SDS011;9959;49.798;9.928;2022-12-20T05:51:22;93.47;;;31.47;;
19623;SDS011;9959;49.798;9.928;2022-12-20T05:54:30;89.07;;;31.67;;
19623;SDS011;9959;49.798;9.928;2022-12-20T05:57:35;99.53;;;32.17;;
19623;SDS011;9959;49.798;9.928;2022-12-20T06:00:40;99.57;;;33.13;;
19623;SDS011;9959;49.798;9.928;2022-12-20T06:03:45;93.70;;;33.07;;
19623;SDS011;9959;49.798;9.928;2022-12-20T06:06:51;93.17;;;32.20;;
19623;SDS011;9959;49.798;9.928;2022-12-20T06:09:59;89.82;;;33.38;;
19623;SDS011;9959;49.798;9.928;2022-12-20T06:13:04;84.30;;;32.63;;
19623;SDS011;9959;49.798;9.928;2022-12-20T06:16:12;93.80;;;32.57;;
19623;SDS011;9959;49.798;9.928;2022-12-20T06:19:20;92.65;;;31.85;;
19623;SDS011;9959;49.798;9.928;2022-12-20T06:22:25;88.77;;;31.77;;
19623;SDS011;9959;49.798;9.928;2022-12-20T06:25:33;100.23;;;33.47;;
19623;SDS011;9959;49.798;9.928;2022-12-20T06:28:40;88.93;;;31.87;;
19623;SDS011;9959;49.798;9.928;2022-12-20T06:31:46;101.40;;;34.70;;
19623;SDS011;9959;49.798;9.928;2022-12-20T06:34:51;90.97;;;32.73;;
19623;SDS011;9959;49.798;9.928;2022-12-20T06:37:56;92.90;;;32.70;;
19623;SDS011;9959;49.798;9.928;2022-12-20T06:41:03;89.07;;;31.80;;
19623;SDS011;9959;49.798;9.928;2022-12-20T06:44:08;93.00;;;31.83;;
19623;SDS011;9959;49.798;9.928;2022-12-20T06:47:13;91.50;;;32.10;;
19623;SDS011;9959;49.798;9.928;2022-12-20T06:50:19;92.93;;;32.07;;
19623;SDS011;9959;49.798;9.928;2022-12-20T06:53:24;98.07;;;32.17;;
19623;SDS011;9959;49.798;9.928;2022-12-20T06:56:31;105.43;;;33.70;;
19623;SDS011;9959;49.798;9.928;2022-12-20T06:59:41;102.90;;;33.73;;
19623;SDS011;9959;49.798;9.928;2022-12-20T07:02:46;100.13;;;33.53;;
19623;SDS011;9959;49.798;9.928;2022-12-20T07:05:52;98.87;;;34.30;;
19623;SDS011;9959;49.798;9.928;2022-12-20T07:08:57;97.03;;;31.75;;
19623;SDS011;9959;49.798;9.928;2022-12-20T07:12:05;89.90;;;30.95;;
19623;SDS011;9959;49.798;9.928;2022-12-20T07:15:10;92.72;;;34.15;;
19623;SDS011;9959;49.798;9.928;2022-12-20T07:18:15;89.72;;;32.47;;
19623;SDS011;9959;49.798;9.928;2022-12-20T07:21:20;93.60;;;32.13;;
19623;SDS011;9959;49.798;9.928;2022-12-20T07:24:26;99.03;;;35.00;;
19623;SDS011;9959;49.798;9.928;2022-12-20T07:27:34;104.93;;;35.03;;
19623;SDS011;9959;49.798;9.928;2022-12-20T07:30:39;93.25;;;31.70;;
19623;SDS011;9959;49.798;9.928;2022-12-20T07:33:44;96.82;;;31.75;;
19623;SDS011;9959;49.798;9.928;2022-12-20T07:36:48;90.30;;;31.73;;
19623;SDS011;9959;49.798;9.928;2022-12-20T07:39:53;90.10;;;31.20;;
19623;SDS011;9959;49.798;9.928;2022-12-20T07:43:01;93.30;;;33.30;;
19623;SDS011;9959;49.798;9.928;2022-12-20T07:46:06;103.57;;;32.97;;
19623;SDS011;9959;49.798;9.928;2022-12-20T07:49:12;94.60;;;33.83;;
19623;SDS011;9959;49.798;9.928;2022-12-20T07:52:18;94.18;;;34.33;;
19623;SDS011;9959;49.798;9.928;2022-12-20T07:55:26;91.90;;;33.17;;
19623;SDS011;9959;49.798;9.928;2022-12-20T07:58:34;101.28;;;33.22;;
19623;SDS011;9959;49.798;9.928;2022-12-20T08:01:43;93.30;;;33.17;;
19623;SDS011;9959;49.798;9.928;2022-12-20T08:04:49;99.40;;;34.55;;
19623;SDS011;9959;49.798;9.928;2022-12-20T08:07:54;99.97;;;34.73;;
19623;SDS011;9959;49.798;9.928;2022-12-20T08:11:00;94.63;;;33.88;;
19623;SDS011;9959;49.798;9.928;2022-12-20T08:14:09;97.43;;;33.95;;
19623;SDS011;9959;49.798;9.928;2022-12-20T08:17:15;96.03;;;33.08;;
19623;SDS011;9959;49.798;9.928;2022-12-20T08:20:20;97.25;;;34.50;;
19623;SDS011;9959;49.798;9.928;2022-12-20T08:23:25;90.75;;;34.00;;
19623;SDS011;9959;49.798;9.928;2022-12-20T08:26:30;91.47;;;33.83;;
19623;SDS011;9959;49.798;9.928;2022-12-20T08:29:38;82.57;;;31.42;;
19623;SDS011;9959;49.798;9.928;2022-12-20T08:32:43;88.97;;;32.10;;
19623;SDS011;9959;49.798;9.928;2022-12-20T08:35:55;97.57;;;34.10;;
19623;SDS011;9959;49.798;9.928;2022-12-20T08:39:01;97.20;;;34.50;;
19623;SDS011;9959;49.798;9.928;2022-12-20T08:42:06;98.00;;;34.47;;
19623;SDS011;9959;49.798;9.928;2022-12-20T08:45:14;88.72;;;32.28;;
19623;SDS011;9959;49.798;9.928;2022-12-20T08:48:20;99.60;;;36.40;;
19623;SDS011;9959;49.798;9.928;2022-12-20T08:51:26;98.68;;;33.97;;
19623;SDS011;9959;49.798;9.928;2022-12-20T08:54:31;86.50;;;32.95;;
19623;SDS011;9959;49.798;9.928;2022-12-20T08:57:35;85.50;;;31.55;;
19623;SDS011;9959;49.798;9.928;2022-12-20T09:00:43;97.27;;;33.83;;
19623;SDS011;9959;49.798;9.928;2022-12-20T09:03:48;91.47;;;33.70;;
19623;SDS011;9959;49.798;9.928;2022-12-20T09:06:53;97.78;;;33.20;;
19623;SDS011;9959;49.798;9.928;2022-12-20T09:09:58;88.25;;;32.40;;
19623;SDS011;9959;49.798;9.928;2022-12-20T09:13:02;82.15;;;30.15;;
19623;SDS011;9959;49.798;9.928;2022-12-20T09:16:11;85.80;;;32.08;;
19623;SDS011;9959;49.798;9.928;2022-12-20T09:19:17;84.15;;;32.50;;
19623;SDS011;9959;49.798;9.928;2022-12-20T09:22:22;86.22;;;32.67;;
19623;SDS011;9959;49.798;9.928;2022-12-20T09:25:27;78.65;;;30.35;;
19623;SDS011;9959;49.798;9.928;2022-12-20T09:28:32;89.43;;;30.80;;
19623;SDS011;9959;49.798;9.928;2022-12-20T09:31:40;79.60;;;32.35;;
19623;SDS011;9959;49.798;9.928;2022-12-20T09:34:45;78.75;;;29.50;;
19623;SDS011;9959;49.798;9.928;2022-12-20T09:37:50;83.95;;;34.65;;
19623;SDS011;9959;49.798;9.928;2022-12-20T09:40:56;82.10;;;32.13;;
19623;SDS011;9959;49.798;9.928;2022-12-20T09:44:04;76.90;;;30.70;;
19623;SDS011;9959;49.798;9.928;2022-12-20T09:47:18;80.20;;;29.27;;
19623;SDS011;9959;49.798;9.928;2022-12-20T09:50:28;75.88;;;29.55;;
19623;SDS011;9959;49.798;9.928;2022-12-20T09:53:49;75.32;;;30.45;;
19623;SDS011;9959;49.798;9.928;2022-12-20T09:57:05;72.28;;;29.05;;
19623;SDS011;9959;49.798;9.928;2022-12-20T10:00:17;73.05;;;29.13;;
19623;SDS011;9959;49.798;9.928;2022-12-20T10:03:26;70.13;;;28.60;;
19623;SDS011;9959;49.798;9.928;2022-12-20T10:06:38;81.78;;;28.63;;
19623;SDS011;9959;49.798;9.928;2022-12-20T10:09:52;73.32;;;29.08;;
19623;SDS011;9959;49.798;9.928;2022-12-20T10:13:12;79.55;;;29.67;;
19623;SDS011;9959;49.798;9.928;2022-12-20T10:16:36;76.57;;;28.73;;
19623;SDS011;9959;49.798;9.928;2022-12-20T10:23:20;76.43;;;29.35;;
19623;SDS011;9959;49.798;9.928;2022-12-20T10:26:34;72.28;;;29.25;;
19623;SDS011;9959;49.798;9.928;2022-12-20T10:29:39;78.07;;;28.60;;
19623;SDS011;9959;49.798;9.928;2022-12-20T10:32:45;85.85;;;29.73;;
19623;SDS011;9959;49.798;9.928;2022-12-20T10:35:54;70.85;;;28.05;;
19623;SDS011;9959;49.798;9.928;2022-12-20T10:38:59;77.65;;;30.27;;
19623;SDS011;9959;49.798;9.928;2022-12-20T10:42:09;76.63;;;29.38;;
19623;SDS011;9959;49.798;9.928;2022-12-20T10:45:32;73.43;;;30.63;;
19623;SDS011;9959;49.798;9.928;2022-12-20T10:48:39;78.07;;;30.83;;
19623;SDS011;9959;49.798;9.928;2022-12-20T10:51:53;75.22;;;31.13;;
19623;SDS011;9959;49.798;9.928;2022-12-20T10:54:59;75.63;;;30.98;;
19623;SDS011;9959;49.798;9.928;2022-12-20T10:58:04;81.63;;;30.63;;
19623;SDS011;9959;49.798;9.928;2022-12-20T11:01:18;89.30;;;32.47;;
19623;SDS011;9959;49.798;9.928;2022-12-20T11:04:25;80.57;;;31.70;;
19623;SDS011;9959;49.798;9.928;2022-12-20T11:07:34;81.45;;;31.98;;
19623;SDS011;9959;49.798;9.928;2022-12-20T11:10:54;76.25;;;30.30;;
19623;SDS011;9959;49.798;9.928;2022-12-20T11:14:17;84.18;;;30.63;;
19623;SDS011;9959;49.798;9.928;2022-12-20T11:17:24;77.00;;;31.70;;
19623;SDS011;9959;49.798;9.928;2022-12-20T11:20:41;84.78;;;31.02;;
19623;SDS011;9959;49.798;9.928;2022-12-20T11:23:54;78.72;;;30.23;;
19623;SDS011;9959;49.798;9.928;2022-12-20T11:27:12;78.88;;;29.77;;
19623;SDS011;9959;49.798;9.928;2022-12-20T11:30:23;80.63;;;30.98;;
19623;SDS011;9959;49.798;9.928;2022-12-20T11:33:33;75.70;;;31.85;;
19623;SDS011;9959;49.798;9.928;2022-12-20T11:36:51;82.40;;;32.38;;
19623;SDS011;9959;49.798;9.928;2022-12-20T11:40:15;82.85;;;31.02;;
19623;SDS011;9959;49.798;9.928;2022-12-20T11:43:35;79.22;;;32.70;;
19623;SDS011;9959;49.798;9.928;2022-12-20T11:47:15;81.43;;;30.40;;
19623;SDS011;9959;49.798;9.928;2022-12-20T11:50:41;77.80;;;31.17;;
19623;SDS011;9959;49.798;9.928;2022-12-20T11:53:59;78.75;;;31.50;;
19623;SDS011;9959;49.798;9.928;2022-12-20T11:57:12;82.85;;;32.25;;
19623;SDS011;9959;49.798;9.928;2022-12-20T12:00:21;80.90;;;31.85;;
19623;SDS011;9959;49.798;9.928;2022-12-20T12:03:29;73.93;;;30.02;;
19623;SDS011;9959;49.798;9.928;2022-12-20T12:06:39;74.13;;;30.35;;
19623;SDS011;9959;49.798;9.928;2022-12-20T12:09:49;78.32;;;31.17;;
19623;SDS011;9959;49.798;9.928;2022-12-20T12:13:02;75.63;;;30.60;;
19623;SDS011;9959;49.798;9.928;2022-12-20T12:16:17;77.80;;;31.27;;
19623;SDS011;9959;49.798;9.928;2022-12-20T12:19:27;67.82;;;29.38;;
19623;SDS011;9959;49.798;9.928;2022-12-20T12:22:34;81.38;;;31.38;;
19623;SDS011;9959;49.798;9.928;2022-12-20T12:25:43;71.13;;;30.00;;
19623;SDS011;9959;49.798;9.928;2022-12-20T12:28:52;76.75;;;31.58;;
19623;SDS011;9959;49.798;9.928;2022-12-20T12:31:59;83.90;;;33.47;;
19623;SDS011;9959;49.798;9.928;2022-12-20T12:35:14;77.38;;;32.92;;
19623;SDS011;9959;49.798;9.928;2022-12-20T12:42:16;80.60;;;32.78;;
19623;SDS011;9959;49.798;9.928;2022-12-20T12:45:45;80.20;;;31.08;;
19623;SDS011;9959;49.798;9.928;2022-12-20T12:48:54;84.55;;;31.98;;
19623;SDS011;9959;49.798;9.928;2022-12-20T12:52:02;82.60;;;34.17;;
19623;SDS011;9959;49.798;9.928;2022-12-20T12:58:38;78.53;;;32.75;;
19623;SDS011;9959;49.798;9.928;2022-12-20T13:01:52;83.90;;;33.85;;
19623;SDS011;9959;49.798;9.928;2022-12-20T13:04:59;77.50;;;32.65;;
19623;SDS011;9959;49.798;9.928;2022-12-20T13:08:09;78.38;;;31.42;;
19623;SDS011;9959;49.798;9.928;2022-12-20T13:11:27;77.13;;;32.15;;
19623;SDS011;9959;49.798;9.928;2022-12-20T13:14:47;76.22;;;29.67;;
19623;SDS011;9959;49.798;9.928;2022-12-20T13:17:58;78.43;;;32.58;;
19623;SDS011;9959;49.798;9.928;2022-12-20T13:24:52;74.20;;;31.17;;
19623;SDS011;9959;49.798;9.928;2022-12-20T13:31:34;80.05;;;30.90;;
19623;SDS011;9959;49.798;9.928;2022-12-20T13:34:54;81.38;;;32.40;;
19623;SDS011;9959;49.798;9.928;2022-12-20T13:38:01;75.55;;;29.73;;
19623;SDS011;9959;49.798;9.928;2022-12-20T13:41:15;80.28;;;32.15;;
19623;SDS011;9959;49.798;9.928;2022-12-20T13:44:35;83.55;;;33.25;;
19623;SDS011;9959;49.798;9.928;2022-12-20T13:47:46;76.03;;;32.42;;
19623;SDS011;9959;49.798;9.928;2022-12-20T13:50:59;75.30;;;30.83;;
19623;SDS011;9959;49.798;9.928;2022-12-20T13:54:05;75.85;;;30.95;;
19623;SDS011;9959;49.798;9.928;2022-12-20T13:57:27;80.47;;;33.13;;
19623;SDS011;9959;49.798;9.928;2022-12-20T14:00:34;79.63;;;33.05;;
19623;SDS011;9959;49.798;9.928;2022-12-20T14:03:39;77.95;;;32.20;;
19623;SDS011;9959;49.798;9.928;2022-12-20T14:06:51;79.97;;;32.90;;
19623;SDS011;9959;49.798;9.928;2022-12-20T14:10:00;78.43;;;33.05;;
19623;SDS011;9959;49.798;9.928;2022-12-20T14:13:13;83.25;;;34.10;;
19623;SDS011;9959;49.798;9.928;2022-12-20T14:16:25;80.25;;;33.47;;
19623;SDS011;9959;49.798;9.928;2022-12-20T14:19:32;84.25;;;34.20;;
19623;SDS011;9959;49.798;9.928;2022-12-20T14:22:39;79.43;;;32.72;;
19623;SDS011;9959;49.798;9.928;2022-12-20T14:25:49;78.15;;;33.83;;
19623;SDS011;9959;49.798;9.928;2022-12-20T14:28:57;91.75;;;34.08;;
19623;SDS011;9959;49.798;9.928;2022-12-20T14:32:16;92.22;;;33.78;;
19623;SDS011;9959;49.798;9.928;2022-12-20T14:35:23;81.88;;;33.67;;
19623;SDS011;9959;49.798;9.928;2022-12-20T14:38:31;79.88;;;33.90;;
19623;SDS011;9959;49.798;9.928;2022-12-20T14:41:37;89.10;;;34.40;;
19623;SDS011;9959;49.798;9.928;2022-12-20T14:44:43;88.47;;;34.78;;
19623;SDS011;9959;49.798;9.928;2022-12-20T14:47:49;91.45;;;36.50;;
19623;SDS011;9959;49.798;9.928;2022-12-20T14:50:58;87.13;;;34.63;;
19623;SDS011;9959;49.798;9.928;2022-12-20T14:54:05;79.20;;;32.95;;
19623;SDS011;9959;49.798;9.928;2022-12-20T14:57:38;82.80;;;34.17;;
19623;SDS011;9959;49.798;9.928;2022-12-20T15:00:54;90.10;;;37.05;;
19623;SDS011;9959;49.798;9.928;2022-12-20T15:04:00;87.85;;;35.03;;
19623;SDS011;9959;49.798;9.928;2022-12-20T15:10:35;90.55;;;36.25;;
19623;SDS011;9959;49.798;9.928;2022-12-20T15:13:43;89.30;;;36.08;;
19623;SDS011;9959;49.798;9.928;2022-12-20T15:16:51;93.72;;;38.28;;
19623;SDS011;9959;49.798;9.928;2022-12-20T15:19:56;90.10;;;36.70;;
19623;SDS011;9959;49.798;9.928;2022-12-20T15:23:02;90.57;;;35.40;;
19623;SDS011;9959;49.798;9.928;2022-12-20T15:26:10;89.75;;;36.42;;
19623;SDS011;9959;49.798;9.928;2022-12-20T15:29:19;89.22;;;37.75;;
19623;SDS011;9959;49.798;9.928;2022-12-20T15:32:26;94.00;;;34.85;;
19623;SDS011;9959;49.798;9.928;2022-12-20T15:35:32;94.35;;;37.50;;
19623;SDS011;9959;49.798;9.928;2022-12-20T15:38:37;95.45;;;38.85;;
19623;SDS011;9959;49.798;9.928;2022-12-20T15:42:05;86.10;;;34.92;;
19623;SDS011;9959;49.798;9.928;2022-12-20T15:45:11;94.88;;;36.97;;
19623;SDS011;9959;49.798;9.928;2022-12-20T15:48:17;98.43;;;37.85;;
19623;SDS011;9959;49.798;9.928;2022-12-20T15:51:25;88.78;;;37.35;;
19623;SDS011;9959;49.798;9.928;2022-12-20T15:54:32;90.57;;;35.53;;
19623;SDS011;9959;49.798;9.928;2022-12-20T15:57:41;88.43;;;36.90;;
19623;SDS011;9959;49.798;9.928;2022-12-20T16:00:46;94.05;;;36.10;;
19623;SDS011;9959;49.798;9.928;2022-12-20T16:03:51;98.40;;;39.08;;
19623;SDS011;9959;49.798;9.928;2022-12-20T16:06:56;94.45;;;37.58;;
19623;SDS011;9959;49.798;9.928;2022-12-20T16:10:01;99.40;;;39.83;;
19623;SDS011;9959;49.798;9.928;2022-12-20T16:13:11;99.78;;;38.10;;
19623;SDS011;9959;49.798;9.928;2022-12-20T16:16:22;107.70;;;38.80;;
19623;SDS011;9959;49.798;9.928;2022-12-20T16:19:28;97.00;;;39.75;;
19623;SDS011;9959;49.798;9.928;2022-12-20T16:22:33;99.88;;;39.20;;
19623;SDS011;9959;49.798;9.928;2022-12-20T16:25:38;100.97;;;40.20;;
19623;SDS011;9959;49.798;9.928;2022-12-20T16:28:47;106.80;;;39.40;;
19623;SDS011;9959;49.798;9.928;2022-12-20T16:31:52;102.25;;;39.63;;
19623;SDS011;9959;49.798;9.928;2022-12-20T16:34:57;113.50;;;40.92;;
19623;SDS011;9959;49.798;9.928;2022-12-20T16:38:02;108.88;;;36.53;;
19623;SDS011;9959;49.798;9.928;2022-12-20T16:41:10;101.28;;;40.30;;
19623;SDS011;9959;49.798;9.928;2022-12-20T16:44:19;106.82;;;40.40;;
19623;SDS011;9959;49.798;9.928;2022-12-20T16:47:24;104.63;;;40.30;;
19623;SDS011;9959;49.798;9.928;2022-12-20T16:50:29;100.63;;;41.03;;
19623;SDS011;9959;49.798;9.928;2022-12-20T16:53:34;97.80;;;39.60;;
19623;SDS011;9959;49.798;9.928;2022-12-20T16:56:58;110.45;;;42.10;;
19623;SDS011;9959;49.798;9.928;2022-12-20T17:00:06;100.10;;;39.90;;
19623;SDS011;9959;49.798;9.928;2022-12-20T17:03:14;94.90;;;38.70;;
19623;SDS011;9959;49.798;9.928;2022-12-20T17:06:19;96.20;;;37.60;;
19623;SDS011;9959;49.798;9.928;2022-12-20T17:09:24;103.97;;;40.60;;
19623;SDS011;9959;49.798;9.928;2022-12-20T17:12:43;107.97;;;40.17;;
19623;SDS011;9959;49.798;9.928;2022-12-20T17:15:51;97.97;;;40.30;;
19623;SDS011;9959;49.798;9.928;2022-12-20T17:18:57;101.43;;;37.50;;
19623;SDS011;9959;49.798;9.928;2022-12-20T17:22:02;93.38;;;38.60;;
19623;SDS011;9959;49.798;9.928;2022-12-20T17:25:22;96.00;;;38.80;;
19623;SDS011;9959;49.798;9.928;2022-12-20T17:28:29;99.72;;;39.50;;
19623;SDS011;9959;49.798;9.928;2022-12-20T17:31:37;94.63;;;40.05;;
19623;SDS011;9959;49.798;9.928;2022-12-20T17:34:43;97.05;;;38.00;;
19623;SDS011;9959;49.798;9.928;2022-12-20T17:37:48;103.88;;;39.55;;
19623;SDS011;9959;49.798;9.928;2022-12-20T17:40:56;104.63;;;40.42;;
19623;SDS011;9959;49.798;9.928;2022-12-20T17:44:01;92.65;;;37.25;;
19623;SDS011;9959;49.798;9.928;2022-12-20T17:47:10;93.57;;;37.40;;
19623;SDS011;9959;49.798;9.928;2022-12-20T17:50:15;93.57;;;38.58;;
19623;SDS011;9959;49.798;9.928;2022-12-20T17:53:20;93.15;;;38.35;;
19623;SDS011;9959;49.798;9.928;2022-12-20T17:56:25;85.60;;;37.97;;
19623;SDS011;9959;49.798;9.928;2022-12-20T17:59:31;94.32;;;37.92;;
19623;SDS011;9959;49.798;9.928;2022-12-20T18:02:39;86.15;;;37.10;;
19623;SDS011;9959;49.798;9.928;2022-12-20T18:05:44;106.00;;;40.75;;
19623;SDS011;9959;49.798;9.928;2022-12-20T18:08:50;95.20;;;39.22;;
19623;SDS011;9959;49.798;9.928;2022-12-20T18:11:56;91.57;;;38.08;;
19623;SDS011;9959;49.798;9.928;2022-12-20T18:15:00;92.75;;;36.90;;
19623;SDS011;9959;49.798;9.928;2022-12-20T18:18:10;93.05;;;38.95;;
19623;SDS011;9959;49.798;9.928;2022-12-20T18:21:15;93.30;;;38.28;;
19623;SDS011;9959;49.798;9.928;2022-12-20T18:24:21;96.32;;;40.03;;
19623;SDS011;9959;49.798;9.928;2022-12-20T18:27:26;94.82;;;39.15;;
19623;SDS011;9959;49.798;9.928;2022-12-20T18:30:31;96.75;;;39.42;;
19623;SDS011;9959;49.798;9.928;2022-12-20T18:33:39;101.90;;;40.05;;
19623;SDS011;9959;49.798;9.928;2022-12-20T18:36:44;92.85;;;39.03;;
19623;SDS011;9959;49.798;9.928;2022-12-20T18:39:49;90.68;;;37.22;;
19623;SDS011;9959;49.798;9.928;2022-12-20T18:42:54;91.82;;;38.38;;
19623;SDS011;9959;49.798;9.928;2022-12-20T18:46:08;93.60;;;38.50;;
19623;SDS011;9959;49.798;9.928;2022-12-20T18:49:17;103.00;;;38.67;;
19623;SDS011;9959;49.798;9.928;2022-12-20T18:52:22;99.30;;;39.65;;
19623;SDS011;9959;49.798;9.928;2022-12-20T18:55:27;95.80;;;39.85;;
19623;SDS011;9959;49.798;9.928;2022-12-20T18:58:32;105.57;;;41.45;;